Dar Mlodziezy — SQLZ — position and weather

sailwx.info

Track history (hours):
 
Tides and Currents Weather Stations Pressure Air Temp Water Temp Dewpoint Dewpoint Depression Visibility Wind Speed Wind Dir Waves Ship Positions

Dar Mlodziezy

Training ship for Gdynia Maritime University, Poland.

Ship's website: http://www.am.gdynia.pl/armator/darmlodziezy.php

Last reported at 2018-Nov-11 00:45 UTC. Time now 2018-Dec-11 00:26 UTC.
Position N 34°38' E 135°23'.
Warning: this ship's position is 29 days out of date.

Length 95 m; beam 14 m.

Type: Sailing vessel. MMSI: 261148000.

Date/timePositionNaut miles runAvg speedWind from/ knotsBaromVisibWave heightAir tempDewpointWater temp
2018-Nov-11 00:45N 34°38' E 135°23'2 0.1
2018-Nov-10 02:43N 34°37' E 135°22'0 0.1
2018-Nov-10 00:50N 34°37' E 135°22'2 5.2
2018-Nov-10 00:23N 34°34' E 135°22'3 8.4
2018-Nov-09 23:58N 34°33' E 135°18'4 9.7
2018-Nov-09 23:31N 34°31' E 135°13'5 9.6
2018-Nov-09 23:02N 34°28' E 135°09'5 9.7
2018-Nov-09 22:32N 34°24' E 135°06'510.3
2018-Nov-09 22:02N 34°20' E 135°02'5 9.7
2018-Nov-09 21:32N 34°16' E 134°59'4 8.2
2018-Nov-09 21:02N 34°12' E 134°60'3 5.9
2018-Nov-09 20:32N 34°09' E 134°59'2 3.8
2018-Nov-09 20:02N 34°07' E 134°59'2 4.2
2018-Nov-09 19:32N 34°05' E 134°58'2 4.0
2018-Nov-09 19:02N 34°03' E 134°58'2 4.7
2018-Nov-09 18:32N 34°01' E 134°57'3 5.3
2018-Nov-09 18:02N 33°58' E 134°56'3 4.9
2018-Nov-09 17:29N 33°55' E 134°55'  
2018-Nov-01 01:13N 22°07' E 120°13'  
Track history (hours):
 
Tides and Currents Weather Stations Pressure Air Temp Water Temp Dewpoint Dewpoint Depression Visibility Wind Speed Wind Dir Waves Ship Positions

Dar Mlodziezy

Training ship for Gdynia Maritime University, Poland.

Ship's website: http://www.am.gdynia.pl/armator/darmlodziezy.php

Last reported at 2018-Nov-11 00:45 UTC. Time now 2018-Dec-11 00:26 UTC.
Position N 34°38' E 135°23'.
Warning: this ship's position is 29 days out of date.

Length 95 m; beam 14 m.

Type: Sailing vessel. MMSI: 261148000.

Date/timePositionNaut miles runAvg speedWind from/ knotsBaromVisibWave heightAir tempDewpointWater temp
2018-Nov-11 00:45N 34°38' E 135°23'2 0.1
2018-Nov-10 02:43N 34°37' E 135°22'0 0.1
2018-Nov-10 00:50N 34°37' E 135°22'2 5.2
2018-Nov-10 00:23N 34°34' E 135°22'3 8.4
2018-Nov-09 23:58N 34°33' E 135°18'4 9.7
2018-Nov-09 23:31N 34°31' E 135°13'5 9.6
2018-Nov-09 23:02N 34°28' E 135°09'5 9.7
2018-Nov-09 22:32N 34°24' E 135°06'510.3
2018-Nov-09 22:02N 34°20' E 135°02'5 9.7
2018-Nov-09 21:32N 34°16' E 134°59'4 8.2
2018-Nov-09 21:02N 34°12' E 134°60'3 5.9
2018-Nov-09 20:32N 34°09' E 134°59'2 3.8
2018-Nov-09 20:02N 34°07' E 134°59'2 4.2
2018-Nov-09 19:32N 34°05' E 134°58'2 4.0
2018-Nov-09 19:02N 34°03' E 134°58'2 4.7
2018-Nov-09 18:32N 34°01' E 134°57'3 5.3
2018-Nov-09 18:02N 33°58' E 134°56'3 4.9
2018-Nov-09 17:29N 33°55' E 134°55'  
2018-Nov-01 01:13N 22°07' E 120°13'  

Dump ship's entire track history